Terminal Aerodrome Forecast
Issued by NWS

Home | Current Version | Previous Version | Text Only | Print | Product List | Glossary On
Versions: 1 2 3 4 5 6 7 8 9 10 11 12
000
FTAK31 PAJN 051122
TAFASI
TAF
PASI 051122Z 0512/0612 13009KT P6SM -RA BKN060 OVC080 WS020/13030KT
     FM052100 14008KT P6SM -SHRA SCT020 OVC045
     FM060300 14008G18KT P6SM VCSH BKN040 OVC060
     FM060900 13006KT P6SM -SHRA SCT025 BKN030 OVC050=

USA.gov is the U.S. government's official web portal to all federal, state and local government web resources and services.